Decoded Metar for PAQH ( in ) (IATA:) | Meteo·Mobile Aviation Weather
aviador You're here:

PAQH Decoded Metar

in
Report Time2018-11-12 21:56:00
UTC Time2018-11-12 22:46:08
Flight Rules vfr VFR
Wind360° at 10 kt
W.Decomp.*RWY 30: 5.0 kt HW 8.7 kt RCW
Visibility9999 m
Phenomena:N/A
Clouds:N/A
Expected CloudBase > 400 ft AGL from Temp-Dew spread
CeilingNone
Temp-1°C
Dew Point-2°C (93% RH)
AAT-6.9°C
QNH998 hPa
Raw Report
PAQH 122156Z AUTO 36010KT 10SM CLR M01/M02 A2946 RMK AO2 SLP976
T10061017 FZRANO=

Extra information for PAQH:More info

Social comments